KGWO/GWO METAR and TAF weather

Enter ICAO airport designator
Station Type Date Time Source
KGWO METAR 2019/08/20 08:53 UTC NOAA

KGWO 200853Z AUTO 00000KT 8SM CLR 23/22 A3002 RMK AO2 SLP164 T02280217 55003


Station Type Date Time Source
KGWO Decoded METAR 2019/08/20 08:53 UTC NOAA

GREENWOOD-LEFLORE AIRPORT, MS, United States (KGWO) 33-30N 090-05W 44M
Aug 20, 2019 - 04:53 AM EDT / 2019.08.20 0853 UTC
Wind: Calm:0
Visibility: 8 mile(s):0
Sky conditions: clear
Temperature: 73.0 F (22.8 C)
Dew Point: 71.1 F (21.7 C)
Relative Humidity: 93%
Pressure (altimeter): 30.02 in. Hg (1016 hPa)
Pressure tendency: 0.01 inches (0.3 hPa) lower than three hours ago
ob: KGWO 200853Z AUTO 00000KT 8SM CLR 23/22 A3002 RMK AO2 SLP164 T02280217 55003
cycle: 9

Station Type Date Time Source
KGWO TAF 2019/08/20 06:16 UTC NOAA

TAF KGWO 200613Z 2006/2106 15003KT P6SM SKC
FM201400 16003KT P6SM SCT035
FM210000 09003KT P6SM SKC

Example: see airport list